createdAt,value
2018-07-02T00:00:50.304Z,69.10
2018-07-02T00:06:05.734Z,69.20
2018-07-02T00:11:09.740Z,69.70
2018-07-02T00:16:13.771Z,69.70
2018-07-02T00:21:17.771Z,71.00
2018-07-02T00:26:21.963Z,71.90
2018-07-02T00:31:26.004Z,72.10
2018-07-02T00:41:33.639Z,71.80
2018-07-02T00:46:37.648Z,71.00
2018-07-02T00:51:41.643Z,71.90
2018-07-02T00:56:45.643Z,73.20
2018-07-02T01:01:49.668Z,73.40
2018-07-02T01:06:53.791Z,73.20
2018-07-02T01:11:57.836Z,74.50
2018-07-02T01:17:04.237Z,75.30
2018-07-02T01:22:08.479Z,75.60
2018-07-02T01:27:12.468Z,76.10
2018-07-02T01:32:16.512Z,75.70
2018-07-02T01:37:20.520Z,75.90
2018-07-02T01:47:28.172Z,74.10
2018-07-02T01:52:32.150Z,74.20
2018-07-02T01:57:36.131Z,74.20
2018-07-02T02:02:40.177Z,73.60
2018-07-02T02:07:44.181Z,73.10
2018-07-02T02:12:48.269Z,73.40
2018-07-02T02:17:52.335Z,70.20
2018-07-02T02:22:56.373Z,70.00
2018-07-02T02:28:00.343Z,70.10
2018-07-02T02:38:08.021Z,70.50
2018-07-02T02:43:12.025Z,70.20
2018-07-02T02:48:16.025Z,69.80
2018-07-02T02:53:20.009Z,70.40
2018-07-02T02:58:24.028Z,70.60
2018-07-02T03:03:28.035Z,71.70
2018-07-02T03:08:32.050Z,71.50
2018-07-02T03:13:36.979Z,70.70
2018-07-02T03:18:40.972Z,73.10
2018-07-02T03:23:44.972Z,74.80
2018-07-02T03:28:48.951Z,75.10
2018-07-02T03:33:52.938Z,76.30
2018-07-02T03:38:56.976Z,77.70
2018-07-02T03:44:00.983Z,77.80
2018-07-02T03:49:05.007Z,78.20
2018-07-02T03:54:09.041Z,78.00
2018-07-02T03:59:13.048Z,76.20
2018-07-02T04:04:17.080Z,76.80
2018-07-02T04:09:21.843Z,77.80
2018-07-02T04:19:29.567Z,75.00
2018-07-02T04:24:33.538Z,74.10
2018-07-02T04:29:37.559Z,75.50
2018-07-02T04:39:45.222Z,76.50
2018-07-02T04:49:53.439Z,75.20
2018-07-02T04:54:57.450Z,75.50
2018-07-02T05:00:01.465Z,74.40
2018-07-02T05:05:05.549Z,74.70
2018-07-02T05:10:09.571Z,74.50
2018-07-02T05:15:13.708Z,73.50
2018-07-02T05:20:17.728Z,73.90
2018-07-02T05:25:21.732Z,73.10
2018-07-02T05:30:25.731Z,72.00
2018-07-02T05:35:29.739Z,73.70
2018-07-02T05:40:33.747Z,72.70
2018-07-02T05:45:37.747Z,72.40
2018-07-02T05:50:41.743Z,70.40
2018-07-02T05:55:45.778Z,69.30
2018-07-02T06:00:49.805Z,69.80
2018-07-02T06:05:53.824Z,68.60
2018-07-02T06:10:57.851Z,67.80
2018-07-02T06:16:01.922Z,67.60
2018-07-02T06:21:07.945Z,66.30
2018-07-02T06:26:11.941Z,66.20
2018-07-02T06:31:15.939Z,63.80
2018-07-02T06:36:20.128Z,63.80
2018-07-02T06:41:24.147Z,61.00
2018-07-02T06:46:28.175Z,60.30
2018-07-02T06:51:32.182Z,60.80
2018-07-02T06:56:36.195Z,60.00
2018-07-02T07:01:40.211Z,58.60
2018-07-02T07:06:45.152Z,59.00
2018-07-02T07:11:49.915Z,57.90
2018-07-02T07:16:54.867Z,57.60
2018-07-02T07:21:58.928Z,56.40
2018-07-02T07:27:02.908Z,54.40
2018-07-02T07:32:06.931Z,55.70
2018-07-02T07:37:10.944Z,54.90
2018-07-02T07:42:15.005Z,55.40
2018-07-02T07:47:19.020Z,54.20
2018-07-02T07:52:24.323Z,52.80
2018-07-02T07:57:28.351Z,52.70
2018-07-02T08:02:32.367Z,54.40
2018-07-02T08:07:36.371Z,53.40
2018-07-02T08:12:40.355Z,51.40
2018-07-02T08:17:44.381Z,51.10
2018-07-02T08:22:48.420Z,50.10
2018-07-02T08:27:52.428Z,49.80
2018-07-02T08:38:00.080Z,50.20
2018-07-02T08:43:04.067Z,48.50
2018-07-02T08:48:08.091Z,47.50
2018-07-02T08:53:12.935Z,49.10
2018-07-02T08:58:16.980Z,49.30
2018-07-02T09:03:21.079Z,47.10
2018-07-02T09:08:25.103Z,47.90
2018-07-02T09:13:29.123Z,46.90
2018-07-02T09:18:33.268Z,46.80
2018-07-02T09:23:37.252Z,48.60
2018-07-02T09:28:41.264Z,47.30
2018-07-02T09:33:45.704Z,45.80
2018-07-02T09:38:49.767Z,44.20
2018-07-02T09:43:54.075Z,45.40
2018-07-02T09:48:58.076Z,46.00
2018-07-02T09:54:02.272Z,44.90
2018-07-02T09:59:06.292Z,44.50
2018-07-02T10:09:13.949Z,44.10
2018-07-02T10:14:17.975Z,44.10
2018-07-02T10:19:22.005Z,44.50
2018-07-02T10:24:26.021Z,45.30
2018-07-02T10:29:30.024Z,45.60
2018-07-02T10:34:34.072Z,44.20
2018-07-02T10:39:38.100Z,45.00
2018-07-02T10:44:42.115Z,44.90
2018-07-02T10:49:46.126Z,42.90
2018-07-02T10:54:50.119Z,47.20
2018-07-02T10:59:54.147Z,44.70
2018-07-02T11:04:58.939Z,43.60
2018-07-02T11:10:03.891Z,41.60
2018-07-02T11:15:07.911Z,42.50
2018-07-02T11:20:12.110Z,42.70
2018-07-02T11:25:16.111Z,41.50
2018-07-02T11:30:20.196Z,43.30
2018-07-02T11:35:24.208Z,42.60
2018-07-02T11:40:28.198Z,42.70
2018-07-02T11:45:32.827Z,41.30
2018-07-02T11:50:36.857Z,41.80
2018-07-02T11:55:40.857Z,41.30
2018-07-02T12:00:44.846Z,39.90
2018-07-02T12:05:48.836Z,41.10
2018-07-02T12:10:52.863Z,41.60
2018-07-02T12:26:04.448Z,38.50
2018-07-02T12:31:09.172Z,38.00
2018-07-02T12:36:13.172Z,40.90
2018-07-02T12:41:17.285Z,39.00
2018-07-02T12:46:21.221Z,39.20
2018-07-02T12:51:25.335Z,38.70
2018-07-02T12:56:29.351Z,40.00
2018-07-02T13:01:34.248Z,40.10
2018-07-02T13:06:39.017Z,39.00
2018-07-02T13:11:43.001Z,38.40
2018-07-02T13:21:51.666Z,38.50
2018-07-02T13:26:55.680Z,37.80
2018-07-02T13:31:59.647Z,38.80
2018-07-02T13:37:03.648Z,39.00
2018-07-02T13:42:07.676Z,38.30
2018-07-02T13:47:11.671Z,37.80
2018-07-02T13:52:15.676Z,37.70
2018-07-02T13:57:19.723Z,39.00
2018-07-02T14:07:27.433Z,38.80
2018-07-02T14:12:31.401Z,37.80
2018-07-02T14:17:35.500Z,38.10
2018-07-02T14:22:39.519Z,37.20
2018-07-02T14:27:43.547Z,37.80
2018-07-02T14:32:47.600Z,38.00
2018-07-02T14:37:51.580Z,37.40
2018-07-02T14:42:55.698Z,37.40
2018-07-02T14:48:00.607Z,39.50
2018-07-02T14:53:04.612Z,39.20
2018-07-02T14:58:08.643Z,39.40
2018-07-02T15:03:12.736Z,37.40
2018-07-02T15:08:17.600Z,38.60
2018-07-02T15:13:22.490Z,38.70
2018-07-02T15:18:26.514Z,37.60
2018-07-02T15:23:30.579Z,38.10
2018-07-02T15:28:35.327Z,38.40
2018-07-02T15:33:39.338Z,39.80
2018-07-02T15:38:43.407Z,39.90
2018-07-02T15:43:47.497Z,39.30
2018-07-02T15:48:51.540Z,38.80
2018-07-02T15:53:55.752Z,39.70
2018-07-02T15:58:59.767Z,39.00
2018-07-02T16:04:03.771Z,40.60
2018-07-02T16:14:12.370Z,40.80
2018-07-02T16:19:16.406Z,41.80
2018-07-02T16:24:20.447Z,41.80
2018-07-02T16:29:24.509Z,43.00
2018-07-02T16:34:28.449Z,43.20
2018-07-02T16:39:32.478Z,43.50
2018-07-02T16:44:36.488Z,42.90
2018-07-02T16:49:40.515Z,44.40
2018-07-02T16:59:48.197Z,43.40
2018-07-02T17:04:52.199Z,44.20
2018-07-02T17:09:56.207Z,47.20
2018-07-02T17:20:04.389Z,48.00
2018-07-02T17:25:08.492Z,49.20
2018-07-02T17:30:12.567Z,49.60
2018-07-02T17:35:16.588Z,49.90
2018-07-02T17:40:20.627Z,50.30
2018-07-02T17:45:24.668Z,50.50
2018-07-02T17:50:28.797Z,50.60
2018-07-02T17:55:32.880Z,50.40
2018-07-02T18:00:36.892Z,52.20
2018-07-02T18:10:44.755Z,52.00
2018-07-02T18:15:48.759Z,52.40
2018-07-02T18:20:52.760Z,52.60
2018-07-02T18:25:57.552Z,53.20
2018-07-02T18:31:01.550Z,53.20
2018-07-02T18:36:06.334Z,52.30
2018-07-02T18:41:10.352Z,53.00
2018-07-02T18:46:20.284Z,53.60
2018-07-02T18:51:30.382Z,54.80
2018-07-02T18:56:35.220Z,54.40
2018-07-02T19:01:39.228Z,54.60
2018-07-02T19:06:43.220Z,54.50
2018-07-02T19:11:47.231Z,54.10
2018-07-02T19:16:51.228Z,54.40
2018-07-02T19:21:56.072Z,55.10
2018-07-02T19:27:00.236Z,55.00
2018-07-02T19:32:04.243Z,55.30
2018-07-02T19:37:08.237Z,55.20
2018-07-02T19:42:12.270Z,54.60
2018-07-02T19:47:16.335Z,55.00
2018-07-02T19:52:20.348Z,55.60
2018-07-02T19:57:24.383Z,55.20
2018-07-02T20:02:28.392Z,55.20
2018-07-02T20:07:34.100Z,55.70
2018-07-02T20:12:38.104Z,55.20
2018-07-02T20:22:46.573Z,56.00
2018-07-02T20:27:50.591Z,56.60
2018-07-02T20:32:54.593Z,55.20
2018-07-02T20:37:58.602Z,55.30
2018-07-02T20:43:02.611Z,56.60
2018-07-02T20:48:06.679Z,56.90
2018-07-02T20:53:10.759Z,56.20
2018-07-02T21:03:18.440Z,56.90
2018-07-02T21:08:25.958Z,57.10
2018-07-02T21:13:29.974Z,57.20
2018-07-02T21:18:34.013Z,56.70
2018-07-02T21:23:38.012Z,57.60
2018-07-02T21:28:43.285Z,56.70
2018-07-02T21:33:48.121Z,57.60
2018-07-02T21:38:52.269Z,58.00
2018-07-02T21:49:00.101Z,58.90
2018-07-02T21:54:04.126Z,58.90
2018-07-02T21:59:08.851Z,59.60
2018-07-02T22:04:12.830Z,59.30
2018-07-02T22:09:17.808Z,59.60
2018-07-02T22:19:25.484Z,60.70
2018-07-02T22:24:29.468Z,59.60
2018-07-02T22:29:33.511Z,60.00
2018-07-02T22:34:37.535Z,60.70
2018-07-02T22:39:56.430Z,60.80
2018-07-02T22:45:00.429Z,60.40
2018-07-02T22:50:04.432Z,61.40
2018-07-02T22:55:08.416Z,60.70
2018-07-02T23:00:13.883Z,61.70
2018-07-02T23:05:17.891Z,61.60
2018-07-02T23:10:21.911Z,60.80
2018-07-02T23:15:25.928Z,62.50
2018-07-02T23:20:29.931Z,62.20
2018-07-02T23:30:37.576Z,61.70
2018-07-02T23:40:45.224Z,61.80
2018-07-02T23:45:49.227Z,61.20
2018-07-02T23:50:53.228Z,62.10
2018-07-02T23:55:57.240Z,63.00
